Time,TemperatureF,DewpointF,PressureIn,WindDirection,WindDirectionDegrees,WindSpeedMPH,WindSpeedGustMPH,Humidity,HourlyPrecipIn,Conditions,Clouds,dailyrainin,SoftwareType,DateUTC
2013-07-04 00:02:00,71.0,70.0,30.27,SE,131,0.0,0.0,97,0.00,,,-99.99,,2013-07-04 04:02:00,
2013-07-04 00:11:00,71.0,70.0,30.27,SE,131,0.0,0.0,97,0.00,,,-99.99,,2013-07-04 04:11:00,
2013-07-04 00:33:00,71.0,70.0,30.27,SE,137,0.0,6.0,97,0.00,,,-99.99,,2013-07-04 04:33:00,
2013-07-04 00:43:00,70.0,69.0,30.27,SE,127,0.0,1.0,97,0.00,,,-99.99,,2013-07-04 04:43:00,
2013-07-04 00:52:00,70.0,69.0,30.25,SE,127,0.0,0.0,97,0.00,,,-99.99,,2013-07-04 04:52:00,
2013-07-04 01:02:00,70.0,69.0,30.25,SE,131,0.0,3.0,97,0.00,,,-99.99,,2013-07-04 05:02:00,
2013-07-04 01:33:00,70.0,69.0,30.25,SSE,150,2.0,6.0,97,0.00,,,-99.99,,2013-07-04 05:33:00,
2013-07-04 01:43:00,70.0,69.0,30.24,SE,133,0.0,0.0,97,0.00,,,-99.99,,2013-07-04 05:43:00,
2013-07-04 01:52:00,70.0,69.0,30.24,SE,133,0.0,0.0,97,0.00,,,-99.99,,2013-07-04 05:52:00,
2013-07-04 02:01:00,70.0,69.0,30.24,SE,133,0.0,0.0,97,0.00,,,-99.99,,2013-07-04 06:01:00,
2013-07-04 02:11:00,70.0,69.0,30.24,SE,133,0.0,0.0,97,0.00,,,-99.99,,2013-07-04 06:11:00,
2013-07-04 02:22:00,70.0,69.0,30.23,SE,133,0.0,0.0,97,0.00,,,-99.99,,2013-07-04 06:22:00,
2013-07-04 02:34:00,70.0,69.0,30.22,SE,133,0.0,0.0,97,0.00,,,-99.99,,2013-07-04 06:34:00,
2013-07-04 02:43:00,70.0,69.0,30.22,SE,133,0.0,0.0,97,0.00,,,-99.99,,2013-07-04 06:43:00,
2013-07-04 02:53:00,70.0,69.0,30.22,SE,146,1.0,5.0,96,0.00,,,-99.99,,2013-07-04 06:53:00,
2013-07-04 03:02:00,70.0,69.0,30.24,SSE,167,0.0,5.0,96,0.00,,,-99.99,,2013-07-04 07:02:00,
2013-07-04 03:12:00,70.0,69.0,30.24,SSE,166,0.0,5.0,97,0.00,,,-99.99,,2013-07-04 07:12:00,
2013-07-04 03:52:00,70.0,69.0,30.24,SE,137,0.0,0.0,97,0.00,,,-99.99,,2013-07-04 07:52:00,
2013-07-04 04:02:00,69.0,68.0,30.24,SE,137,0.0,0.0,98,0.00,,,-99.99,,2013-07-04 08:02:00,
2013-07-04 04:22:00,69.0,68.0,30.24,SE,137,0.0,0.0,98,0.00,,,-99.99,,2013-07-04 08:22:00,
2013-07-04 04:33:00,69.0,68.0,30.24,SE,137,0.0,0.0,98,0.00,,,-99.99,,2013-07-04 08:33:00,
2013-07-04 04:42:00,69.0,68.0,30.24,SE,137,0.0,0.0,98,0.00,,,-99.99,,2013-07-04 08:42:00,
2013-07-04 04:53:00,69.0,68.0,30.24,SE,137,0.0,0.0,98,0.00,,,-99.99,,2013-07-04 08:53:00,
2013-07-04 05:02:00,69.0,68.0,30.24,SE,137,0.0,0.0,98,0.00,,,-99.99,,2013-07-04 09:02:00,
2013-07-04 05:11:00,68.0,68.0,30.24,SE,137,0.0,0.0,99,0.00,,,-99.99,,2013-07-04 09:11:00,
2013-07-04 05:22:00,68.0,68.0,30.24,SE,137,0.0,0.0,99,0.00,,,-99.99,,2013-07-04 09:22:00,
2013-07-04 05:42:00,69.0,69.0,30.25,SE,137,0.0,0.0,99,0.00,,,-99.99,,2013-07-04 09:42:00,
2013-07-04 06:01:00,69.0,69.0,30.25,SE,137,0.0,0.0,99,0.00,,,-99.99,,2013-07-04 10:01:00,
2013-07-04 06:11:00,69.0,69.0,30.25,SE,137,0.0,0.0,99,0.00,,,-99.99,,2013-07-04 10:11:00,
2013-07-04 06:34:00,69.0,69.0,30.27,SE,137,0.0,0.0,99,0.00,,,-99.99,,2013-07-04 10:34:00,
2013-07-04 06:43:00,69.0,69.0,30.27,SE,137,0.0,0.0,99,0.00,,,-99.99,,2013-07-04 10:43:00,
2013-07-04 06:53:00,69.0,69.0,30.27,SE,137,0.0,0.0,99,0.00,,,-99.99,,2013-07-04 10:53:00,
2013-07-04 07:02:00,71.0,70.0,30.27,SE,137,0.0,0.0,98,0.00,,,-99.99,,2013-07-04 11:02:00,
2013-07-04 08:02:00,73.0,71.0,30.27,SE,137,0.0,0.0,93,0.00,,,-99.99,,2013-07-04 12:02:00,
2013-07-04 08:12:00,73.0,71.0,30.27,SE,137,0.0,0.0,93,0.00,,,-99.99,,2013-07-04 12:12:00,
2013-07-04 08:22:00,73.0,71.0,30.28,SSE,162,2.0,5.0,94,0.00,,,-99.99,,2013-07-04 12:22:00,
2013-07-04 08:33:00,73.0,71.0,30.28,South,183,0.0,5.0,94,0.00,,,-99.99,,2013-07-04 12:33:00,
2013-07-04 08:43:00,73.0,71.0,30.28,South,183,0.0,5.0,94,0.00,,,-99.99,,2013-07-04 12:43:00,
2013-07-04 08:52:00,73.0,71.0,30.28,SE,146,2.0,5.0,94,0.00,,,-99.99,,2013-07-04 12:52:00,
2013-07-04 09:23:00,74.0,72.0,30.29,SSE,160,1.0,7.0,92,0.00,,,-99.99,,2013-07-04 13:23:00,
2013-07-04 09:33:00,75.0,72.0,30.29,SSE,160,4.0,9.0,91,0.00,,,-99.99,,2013-07-04 13:33:00,
2013-07-04 09:43:00,76.0,73.0,30.29,South,177,5.0,12.0,90,0.00,,,-99.99,,2013-07-04 13:43:00,
2013-07-04 10:02:00,76.0,73.0,30.29,South,183,2.0,8.0,89,0.00,,,-99.99,,2013-07-04 14:02:00,
2013-07-04 10:12:00,76.0,73.0,30.29,South,181,2.0,8.0,89,0.00,,,-99.99,,2013-07-04 14:12:00,
2013-07-04 10:22:00,75.0,72.0,30.29,South,173,3.0,11.0,89,0.00,,,-99.99,,2013-07-04 14:22:00,
2013-07-04 10:43:00,75.0,72.0,30.29,South,178,2.0,8.0,90,0.00,,,-99.99,,2013-07-04 14:43:00,
2013-07-04 10:53:00,75.0,72.0,30.30,SSE,159,3.0,8.0,90,0.00,,,-99.99,,2013-07-04 14:53:00,
2013-07-04 11:02:00,75.0,72.0,30.29,South,172,2.0,8.0,90,0.00,,,-99.99,,2013-07-04 15:02:00,
2013-07-04 11:23:00,76.0,72.0,30.29,SSW,211,4.0,9.0,87,0.00,,,-99.99,,2013-07-04 15:23:00,
2013-07-04 11:33:00,76.0,72.0,30.29,SSW,211,4.0,9.0,87,0.00,,,-99.99,,2013-07-04 15:33:00,
2013-07-04 11:43:00,77.0,72.0,30.28,SSW,192,3.0,7.0,84,0.00,,,-99.99,,2013-07-04 15:43:00,
2013-07-04 11:52:00,78.0,72.0,30.28,SSW,197,4.0,10.0,83,0.00,,,-99.99,,2013-07-04 15:52:00,
2013-07-04 12:02:00,78.0,71.0,30.29,SSW,196,1.0,6.0,80,0.00,,,-99.99,,2013-07-04 16:02:00,
2013-07-04 12:11:00,79.0,72.0,30.29,SSE,163,5.0,10.0,80,0.00,,,-99.99,,2013-07-04 16:11:00,
2013-07-04 12:22:00,79.0,72.0,30.29,SSW,207,4.0,10.0,80,0.00,,,-99.99,,2013-07-04 16:22:00,
2013-07-04 12:33:00,78.0,71.0,30.28,South,184,1.0,8.0,80,0.00,,,-99.99,,2013-07-04 16:33:00,
2013-07-04 12:43:00,79.0,73.0,30.28,SSW,192,1.0,6.0,81,0.00,,,-99.99,,2013-07-04 16:43:00,
2013-07-04 12:52:00,80.0,72.0,30.28,SSE,154,3.0,9.0,76,0.00,,,-99.99,,2013-07-04 16:52:00,
2013-07-04 13:02:00,80.0,71.0,30.28,East,96,1.0,6.0,75,0.00,,,-99.99,,2013-07-04 17:02:00,
2013-07-04 13:12:00,80.0,71.0,30.28,SSE,157,1.0,5.0,74,0.00,,,-99.99,,2013-07-04 17:12:00,
2013-07-04 13:22:00,81.0,71.0,30.28,SSE,147,4.0,8.0,72,0.00,,,-99.99,,2013-07-04 17:22:00,
2013-07-04 13:34:00,81.0,71.0,30.28,SSE,162,4.0,9.0,71,0.00,,,-99.99,,2013-07-04 17:34:00,
2013-07-04 13:43:00,81.0,70.0,30.28,SE,142,5.0,9.0,70,0.00,,,-99.99,,2013-07-04 17:43:00,
2013-07-04 13:53:00,81.0,70.0,30.27,SE,139,4.0,8.0,70,0.00,,,-99.99,,2013-07-04 17:53:00,
2013-07-04 14:01:00,81.0,72.0,30.27,ESE,103,0.0,5.0,73,0.00,,,-99.99,,2013-07-04 18:01:00,
2013-07-04 14:11:00,82.0,71.0,30.27,East,97,3.0,6.0,70,0.00,,,-99.99,,2013-07-04 18:11:00,
2013-07-04 14:22:00,83.0,71.0,30.27,South,174,1.0,8.0,68,0.00,,,-99.99,,2013-07-04 18:22:00,
2013-07-04 14:33:00,83.0,72.0,30.27,ESE,121,3.0,6.0,70,0.00,,,-99.99,,2013-07-04 18:33:00,
2013-07-04 14:43:00,82.0,71.0,30.27,SE,138,4.0,9.0,70,0.00,,,-99.99,,2013-07-04 18:43:00,
2013-07-04 14:52:00,82.0,71.0,30.25,ESE,108,4.0,9.0,69,0.00,,,-99.99,,2013-07-04 18:52:00,
2013-07-04 15:02:00,83.0,71.0,30.25,SE,145,3.0,8.0,68,0.00,,,-99.99,,2013-07-04 19:02:00,
2013-07-04 15:12:00,83.0,71.0,30.25,SE,136,4.0,8.0,68,0.00,,,-99.99,,2013-07-04 19:12:00,
2013-07-04 15:22:00,83.0,71.0,30.24,ESE,104,4.0,9.0,67,0.00,,,-99.99,,2013-07-04 19:22:00,
2013-07-04 15:33:00,83.0,72.0,30.24,ESE,111,2.0,9.0,69,0.00,,,-99.99,,2013-07-04 19:33:00,
2013-07-04 15:43:00,83.0,72.0,30.24,ESE,107,4.0,11.0,69,0.00,,,-99.99,,2013-07-04 19:43:00,
2013-07-04 15:53:00,82.0,72.0,30.24,ESE,122,4.0,8.0,71,0.00,,,-99.99,,2013-07-04 19:53:00,
2013-07-04 16:02:00,82.0,72.0,30.22,East,96,4.0,9.0,72,0.00,,,-99.99,,2013-07-04 20:02:00,
2013-07-04 16:11:00,82.0,72.0,30.22,East,96,4.0,9.0,72,0.00,,,-99.99,,2013-07-04 20:11:00,
2013-07-04 16:22:00,82.0,72.0,30.22,ESE,116,3.0,8.0,73,0.00,,,-99.99,,2013-07-04 20:22:00,
2013-07-04 16:34:00,81.0,72.0,30.22,ESE,111,3.0,9.0,75,0.00,,,-99.99,,2013-07-04 20:34:00,
2013-07-04 16:42:00,80.0,72.0,30.22,SE,131,5.0,11.0,77,0.00,,,-99.99,,2013-07-04 20:42:00,
2013-07-04 16:53:00,80.0,73.0,30.23,SSE,151,3.0,12.0,79,0.00,,,-99.99,,2013-07-04 20:53:00,
2013-07-04 17:01:00,80.0,74.0,30.22,SE,132,4.0,9.0,81,0.00,,,-99.99,,2013-07-04 21:01:00,
2013-07-04 17:12:00,79.0,74.0,30.23,SSE,153,3.0,8.0,85,0.00,,,-99.99,,2013-07-04 21:12:00,
2013-07-04 17:22:00,79.0,74.0,30.24,SE,132,1.0,6.0,85,0.00,,,-99.99,,2013-07-04 21:22:00,
2013-07-04 17:32:00,79.0,75.0,30.23,SE,136,4.0,10.0,87,0.00,,,-99.99,,2013-07-04 21:32:00,
2013-07-04 17:43:00,78.0,74.0,30.22,SE,136,5.0,13.0,89,0.00,,,-99.99,,2013-07-04 21:43:00,
2013-07-04 17:53:00,78.0,74.0,30.22,SE,133,5.0,10.0,89,0.00,,,-99.99,,2013-07-04 21:53:00,
2013-07-04 18:02:00,78.0,73.0,30.22,East,97,4.0,11.0,84,0.00,,,-99.99,,2013-07-04 22:02:00,
2013-07-04 18:12:00,78.0,72.0,30.22,ESE,121,6.0,12.0,81,0.00,,,-99.99,,2013-07-04 22:12:00,
2013-07-04 18:22:00,77.0,71.0,30.22,SE,144,4.0,7.0,83,0.00,,,-99.99,,2013-07-04 22:22:00,
2013-07-04 18:33:00,77.0,72.0,30.22,SE,124,0.0,5.0,84,0.00,,,-99.99,,2013-07-04 22:33:00,
2013-07-04 18:43:00,78.0,73.0,30.22,ESE,120,0.0,0.0,84,0.00,,,-99.99,,2013-07-04 22:43:00,
2013-07-04 18:52:00,78.0,73.0,30.22,ESE,120,0.0,0.0,84,0.00,,,-99.99,,2013-07-04 22:52:00,
2013-07-04 19:01:00,78.0,73.0,30.22,SSE,167,0.0,0.0,86,0.00,,,-99.99,,2013-07-04 23:01:00,
2013-07-04 19:12:00,78.0,73.0,30.22,SSE,167,0.0,0.0,86,0.00,,,-99.99,,2013-07-04 23:12:00,
2013-07-04 19:23:00,78.0,73.0,30.23,NNE,32,0.0,2.0,86,0.00,,,-99.99,,2013-07-04 23:23:00,
2013-07-04 19:33:00,78.0,73.0,30.23,North,5,0.0,0.0,86,0.00,,,-99.99,,2013-07-04 23:33:00,
2013-07-04 19:43:00,78.0,74.0,30.23,North,5,0.0,0.0,87,0.00,,,-99.99,,2013-07-04 23:43:00,
2013-07-04 19:52:00,77.0,74.0,30.24,North,5,0.0,0.0,89,0.00,,,-99.99,,2013-07-04 23:52:00,
2013-07-04 20:01:00,77.0,74.0,30.23,North,5,0.0,0.0,89,0.00,,,-99.99,,2013-07-05 00:01:00,
2013-07-04 20:12:00,77.0,74.0,30.23,North,5,0.0,0.0,90,0.00,,,-99.99,,2013-07-05 00:12:00,
2013-07-04 20:22:00,77.0,74.0,30.23,North,5,0.0,0.0,91,0.00,,,-99.99,,2013-07-05 00:22:00,
2013-07-04 20:32:00,77.0,74.0,30.23,North,5,0.0,0.0,91,0.00,,,-99.99,,2013-07-05 00:32:00,
2013-07-04 20:43:00,77.0,74.0,30.23,North,5,0.0,0.0,91,0.00,,,-99.99,,2013-07-05 00:43:00,
2013-07-04 20:52:00,76.0,74.0,30.24,North,5,0.0,0.0,92,0.00,,,-99.99,,2013-07-05 00:52:00,
2013-07-04 21:01:00,76.0,74.0,30.24,North,5,0.0,0.0,92,0.00,,,-99.99,,2013-07-05 01:01:00,
2013-07-04 21:11:00,76.0,74.0,30.24,North,5,0.0,0.0,92,0.00,,,-99.99,,2013-07-05 01:11:00,
2013-07-04 21:22:00,76.0,74.0,30.24,North,5,0.0,0.0,92,0.00,,,-99.99,,2013-07-05 01:22:00,
2013-07-04 21:32:00,76.0,74.0,30.24,North,5,0.0,0.0,92,0.00,,,-99.99,,2013-07-05 01:32:00,
2013-07-04 21:42:00,74.0,72.0,30.23,WSW,253,0.0,0.0,94,0.00,,,-99.99,,2013-07-05 01:42:00,
2013-07-04 21:52:00,74.0,72.0,30.23,WSW,253,0.0,0.0,94,0.00,,,-99.99,,2013-07-05 01:52:00,
2013-07-04 22:02:00,74.0,72.0,30.24,WSW,253,0.0,0.0,95,0.00,,,-99.99,,2013-07-05 02:02:00,
2013-07-04 22:11:00,74.0,72.0,30.24,WSW,253,0.0,0.0,95,0.00,,,-99.99,,2013-07-05 02:11:00,
2013-07-04 22:22:00,74.0,72.0,30.24,WSW,253,0.0,0.0,95,0.00,,,-99.99,,2013-07-05 02:22:00,
2013-07-04 22:32:00,74.0,72.0,30.24,WSW,253,0.0,0.0,95,0.00,,,-99.99,,2013-07-05 02:32:00,
2013-07-04 22:42:00,74.0,72.0,30.24,WSW,253,0.0,0.0,95,0.00,,,-99.99,,2013-07-05 02:42:00,
2013-07-04 22:53:00,74.0,72.0,30.24,WSW,253,0.0,0.0,95,0.00,,,-99.99,,2013-07-05 02:53:00,
2013-07-04 23:02:00,73.0,71.0,30.25,WSW,253,0.0,0.0,95,0.00,,,-99.99,,2013-07-05 03:02:00,
2013-07-04 23:11:00,73.0,71.0,30.25,WSW,253,0.0,0.0,95,0.00,,,-99.99,,2013-07-05 03:11:00,
2013-07-04 23:22:00,73.0,71.0,30.25,WSW,253,0.0,0.0,95,0.00,,,-99.99,,2013-07-05 03:22:00,
2013-07-04 23:33:00,73.0,72.0,30.25,WSW,253,0.0,0.0,96,0.00,,,-99.99,,2013-07-05 03:33:00,
2013-07-04 23:42:00,73.0,72.0,30.25,WSW,253,0.0,0.0,96,0.00,,,-99.99,,2013-07-05 03:42:00,
2013-07-04 23:52:00,73.0,72.0,30.25,WSW,253,0.0,0.0,96,0.00,,,-99.99,,2013-07-05 03:52:00,